Terminal Aerodrome Forecast
Issued by NWS Pocatello, ID

Home | Current Version | Previous Version | Text Only | Print | Product List | Glossary On
Versions: 1 2 3 4 5 6 7 8 9 10 11 12 13 14 15 16 17 18
185
FTUS45 KPIH 281120
TAFPIH
TAF
KPIH 281120Z 2812/0112 21011KT P6SM SCT060 BKN200
     FM281400 22015G25KT 3SM -SHSN BKN015 OVC040
     FM281700 23026G38KT P6SM VCSH SCT015 BKN040
     FM010200 22015KT P6SM SCT012=

USA.gov is the U.S. government's official web portal to all federal, state and local government web resources and services.